createdAt,value
2023-02-25T00:02:03.772Z,98813.47
2023-02-25T00:04:32.370Z,98816.06
2023-02-25T00:07:00.326Z,98823.00
2023-02-25T00:09:28.083Z,98823.00
2023-02-25T00:11:57.327Z,98825.63
2023-02-25T00:14:25.064Z,98822.16
2023-02-25T00:16:55.959Z,98818.69
2023-02-25T00:19:23.773Z,98817.88
2023-02-25T00:21:51.586Z,98826.53
2023-02-25T00:24:19.236Z,98820.44
2023-02-25T00:26:46.945Z,98822.19
2023-02-25T00:29:16.011Z,98796.34
2023-02-25T00:31:44.030Z,98810.03
2023-02-25T00:34:11.872Z,98818.69
2023-02-25T00:39:14.010Z,98807.38
2023-02-25T00:41:41.786Z,98815.13
2023-02-25T00:44:09.636Z,98796.16
2023-02-25T00:46:38.735Z,98802.13
2023-02-25T00:49:06.870Z,98804.75
2023-02-25T00:51:34.703Z,98802.13
2023-02-25T00:54:02.490Z,98809.09
2023-02-25T00:56:30.240Z,98822.09
2023-02-25T00:58:59.342Z,98806.50
2023-02-25T01:01:27.759Z,98777.41
2023-02-25T01:03:57.619Z,98796.22
2023-02-25T01:06:25.883Z,98790.97
2023-02-25T01:08:54.033Z,98765.16
2023-02-25T01:11:27.661Z,98758.25
2023-02-25T01:13:56.664Z,98789.34
2023-02-25T01:16:26.188Z,98760.94
2023-02-25T01:18:54.110Z,98810.84
2023-02-25T01:21:26.430Z,98809.13
2023-02-25T01:23:58.329Z,98786.81
2023-02-25T01:26:26.402Z,98801.47
2023-02-25T01:28:54.223Z,98816.94
2023-02-25T01:31:24.921Z,98832.56
2023-02-25T01:33:52.820Z,98816.06
2023-02-25T01:36:20.927Z,98814.34
2023-02-25T01:38:50.322Z,98814.28
2023-02-25T01:41:18.067Z,98780.69
2023-02-25T01:44:06.101Z,98816.84
2023-02-25T01:46:33.836Z,98763.38
2023-02-25T01:49:01.858Z,98776.38
2023-02-25T01:51:29.547Z,98808.25
2023-02-25T01:53:59.863Z,98777.31
2023-02-25T01:56:27.571Z,98813.38
2023-02-25T01:58:55.458Z,98816.84
2023-02-25T02:01:24.312Z,98822.00
2023-02-25T02:03:52.077Z,98815.91
2023-02-25T02:06:21.240Z,98824.63
2023-02-25T02:08:49.502Z,98822.91
2023-02-25T02:11:18.603Z,98812.53
2023-02-25T02:13:48.629Z,98839.50
2023-02-25T02:16:23.853Z,98836.84
2023-02-25T02:18:53.490Z,98785.91
2023-02-25T02:21:39.277Z,98768.63
2023-02-25T02:24:36.253Z,98794.44
2023-02-25T02:27:08.536Z,98778.19
2023-02-25T02:30:05.583Z,98805.78
2023-02-25T02:32:36.852Z,98829.06
2023-02-25T02:35:09.381Z,98810.97
2023-02-25T02:37:41.320Z,98818.66
2023-02-25T02:40:19.901Z,98818.63
2023-02-25T02:42:54.844Z,98811.69
2023-02-25T02:45:23.715Z,98805.59
2023-02-25T02:47:55.023Z,98796.13
2023-02-25T02:50:25.701Z,98809.09
2023-02-25T02:52:55.019Z,98796.94
2023-02-25T02:55:24.292Z,98808.22
2023-02-25T02:57:53.213Z,98798.78
2023-02-25T03:00:26.484Z,98821.31
2023-02-25T03:02:57.515Z,98823.09
2023-02-25T03:05:26.483Z,98807.50
2023-02-25T03:08:07.849Z,98773.81
2023-02-25T03:10:35.603Z,98810.84
2023-02-25T03:13:04.760Z,98806.69
2023-02-25T03:15:32.405Z,98810.06
2023-02-25T03:18:03.320Z,98811.84
2023-02-25T03:20:34.700Z,98823.97
2023-02-25T03:23:07.329Z,98823.19
2023-02-25T03:25:36.837Z,98823.09
2023-02-25T03:28:06.457Z,98839.53
2023-02-25T03:30:36.516Z,98778.28
2023-02-25T03:33:11.146Z,98808.53
2023-02-25T03:35:39.807Z,98831.78
2023-02-25T03:38:09.236Z,98840.47
2023-02-25T03:40:37.232Z,98839.59
2023-02-25T03:43:08.577Z,98839.59
2023-02-25T03:45:36.550Z,98824.16
2023-02-25T03:48:06.477Z,98844.81
2023-02-25T03:50:35.470Z,98839.63
2023-02-25T03:53:03.278Z,98844.03
2023-02-25T03:55:30.999Z,98839.59
2023-02-25T03:57:58.787Z,98817.22
2023-02-25T04:00:27.863Z,98845.72
2023-02-25T04:02:55.624Z,98816.34
2023-02-25T04:05:27.676Z,98839.75
2023-02-25T04:07:55.864Z,98821.66
2023-02-25T04:10:23.563Z,98838.03
2023-02-25T04:12:52.134Z,98810.47
2023-02-25T04:15:20.259Z,98805.25
2023-02-25T04:17:48.076Z,98835.44
2023-02-25T04:20:16.918Z,98863.97
2023-02-25T04:22:46.278Z,98856.19
2023-02-25T04:25:14.336Z,98863.09
2023-02-25T04:27:42.059Z,98868.31
2023-02-25T04:30:11.355Z,98875.22
2023-02-25T04:32:39.280Z,98876.13
2023-02-25T04:35:11.603Z,98867.44
2023-02-25T04:37:39.358Z,98876.13
2023-02-25T04:40:12.112Z,98868.38
2023-02-25T04:42:39.833Z,98853.72
2023-02-25T04:45:08.807Z,98841.63
2023-02-25T04:47:36.488Z,98866.59
2023-02-25T04:50:04.506Z,98832.03
2023-02-25T04:52:32.217Z,98855.34
2023-02-25T04:55:00.126Z,98839.81
2023-02-25T04:57:29.206Z,98846.72
2023-02-25T04:59:57.086Z,98857.97
2023-02-25T05:02:24.790Z,98870.03
2023-02-25T05:04:52.651Z,98834.63
2023-02-25T05:07:20.378Z,98862.22
2023-02-25T05:09:48.335Z,98856.19
2023-02-25T05:12:16.274Z,98860.50
2023-02-25T05:14:45.551Z,98854.50
2023-02-25T05:17:15.825Z,98866.59
2023-02-25T05:19:43.989Z,98863.97
2023-02-25T05:22:11.734Z,98857.91
2023-02-25T05:24:39.537Z,98845.00
2023-02-25T05:27:09.170Z,98862.22
2023-02-25T05:29:37.133Z,98861.34
2023-02-25T05:32:07.726Z,98864.88
2023-02-25T05:34:36.386Z,98867.47
2023-02-25T05:37:04.746Z,98854.53
2023-02-25T05:39:32.471Z,98867.47
2023-02-25T05:42:01.421Z,98869.19
2023-02-25T05:44:29.085Z,98870.91
2023-02-25T05:46:59.877Z,98834.66
2023-02-25T05:49:29.577Z,98866.59
2023-02-25T05:51:57.402Z,98862.22
2023-02-25T05:54:25.294Z,98870.03
2023-02-25T05:56:53.570Z,98849.28
2023-02-25T05:59:21.297Z,98873.47
2023-02-25T06:01:49.422Z,98874.31
2023-02-25T06:04:17.104Z,98877.84
2023-02-25T06:06:50.210Z,98833.00
2023-02-25T06:09:19.635Z,98873.50
2023-02-25T06:11:47.989Z,98872.66
2023-02-25T06:14:15.794Z,98877.84
2023-02-25T06:16:44.569Z,98877.88
2023-02-25T06:19:12.827Z,98883.03
2023-02-25T06:21:41.146Z,98846.81
2023-02-25T06:24:11.212Z,98887.41
2023-02-25T06:26:41.847Z,98890.84
2023-02-25T06:29:10.475Z,98890.84
2023-02-25T06:31:38.582Z,98902.09
2023-02-25T06:34:06.745Z,98868.50
2023-02-25T06:36:34.482Z,98896.94
2023-02-25T06:41:31.385Z,98896.97
2023-02-25T06:44:01.458Z,98907.28
2023-02-25T06:46:29.454Z,98914.25
2023-02-25T06:48:57.306Z,98904.75
2023-02-25T06:51:25.814Z,98864.22
2023-02-25T06:53:53.847Z,98876.28
2023-02-25T06:56:22.635Z,98927.22
2023-02-25T06:58:53.266Z,98907.34
2023-02-25T07:01:22.426Z,98928.06
2023-02-25T07:03:51.121Z,98927.19
2023-02-25T07:06:19.108Z,98921.13
2023-02-25T07:08:46.931Z,98936.66
2023-02-25T07:11:15.640Z,98887.47
2023-02-25T07:13:44.326Z,98950.53
2023-02-25T07:19:06.763Z,98933.97
2023-02-25T07:21:34.537Z,98880.47
2023-02-25T07:24:02.372Z,98940.88
2023-02-25T07:26:30.212Z,98904.59
2023-02-25T07:28:58.168Z,98926.97
2023-02-25T07:31:32.658Z,98924.38
2023-02-25T07:34:03.424Z,98935.59
2023-02-25T07:36:33.015Z,98930.31
2023-02-25T07:39:02.112Z,98935.50
2023-02-25T07:41:30.048Z,98935.44
2023-02-25T07:43:57.832Z,98942.38
2023-02-25T07:46:26.167Z,98940.63
2023-02-25T07:49:02.420Z,98949.31
2023-02-25T07:51:30.121Z,98951.03
2023-02-25T07:53:58.483Z,98919.94
2023-02-25T07:56:27.718Z,98947.47
2023-02-25T07:58:55.468Z,98951.75
2023-02-25T08:01:26.407Z,98943.16
2023-02-25T08:03:55.211Z,98957.88
2023-02-25T08:06:24.375Z,98965.78
2023-02-25T08:08:55.199Z,98973.81
2023-02-25T08:11:23.912Z,98959.88
2023-02-25T08:13:52.302Z,98981.53
2023-02-25T08:16:20.964Z,98943.47
2023-02-25T08:18:48.832Z,98978.94
2023-02-25T08:21:18.331Z,98957.31
2023-02-25T08:23:49.702Z,98970.25
2023-02-25T08:26:18.445Z,98977.16
2023-02-25T08:28:46.478Z,98965.06
2023-02-25T08:31:14.685Z,98937.47
2023-02-25T08:33:43.372Z,98935.00
2023-02-25T08:36:11.919Z,98996.38
2023-02-25T08:38:39.784Z,98993.81
2023-02-25T08:41:08.879Z,98991.19
2023-02-25T08:43:37.114Z,98993.78
2023-02-25T08:46:06.337Z,98991.97
2023-02-25T08:48:34.242Z,98979.81
2023-02-25T08:51:04.009Z,98997.13
2023-02-25T08:53:31.784Z,98983.31
2023-02-25T08:56:03.382Z,98984.97
2023-02-25T08:58:32.680Z,98995.38
2023-02-25T09:01:00.467Z,99001.34
2023-02-25T09:03:28.902Z,99002.16
2023-02-25T09:05:57.207Z,98971.00
2023-02-25T09:08:25.078Z,98988.13
2023-02-25T09:10:52.827Z,98991.56
2023-02-25T09:13:23.922Z,98993.41
2023-02-25T09:18:43.656Z,99018.13
2023-02-25T09:21:14.900Z,99019.53
2023-02-25T09:23:42.775Z,99021.81
2023-02-25T09:26:25.759Z,99019.09
2023-02-25T09:28:53.455Z,99019.94
2023-02-25T09:31:23.228Z,99016.53
2023-02-25T09:33:52.087Z,99027.94
2023-02-25T09:36:20.978Z,99005.34
2023-02-25T09:38:49.680Z,99034.75
2023-02-25T09:41:23.948Z,99015.72
2023-02-25T09:44:00.983Z,99030.44
2023-02-25T09:46:30.288Z,98992.63
2023-02-25T09:49:00.273Z,99008.44
2023-02-25T09:51:29.358Z,99048.06
2023-02-25T09:59:21.540Z,99066.50
2023-02-25T10:01:53.172Z,99079.66
2023-02-25T10:04:25.648Z,99071.13
2023-02-25T10:06:55.906Z,99078.09
2023-02-25T10:09:29.221Z,99086.00
2023-02-25T10:12:02.277Z,99086.88
2023-02-25T10:14:43.514Z,99069.50
2023-02-25T10:17:16.286Z,99089.47
2023-02-25T10:19:52.300Z,99094.66
2023-02-25T10:22:28.470Z,99042.66
2023-02-25T10:24:58.077Z,99094.53
2023-02-25T10:27:28.470Z,99091.75
2023-02-25T10:29:58.189Z,99088.00
2023-02-25T10:32:28.223Z,99090.44
2023-02-25T10:34:58.098Z,99069.41
2023-02-25T10:37:28.287Z,99079.44
2023-02-25T10:39:57.169Z,99098.19
2023-02-25T10:42:26.120Z,99103.50
2023-02-25T10:44:53.866Z,99099.28
2023-02-25T10:47:30.284Z,99109.69
2023-02-25T10:50:29.792Z,99116.63
2023-02-25T10:53:13.465Z,99078.75
2023-02-25T10:55:51.882Z,99114.28
2023-02-25T10:58:28.418Z,99116.44
2023-02-25T11:01:01.011Z,99123.03
2023-02-25T11:03:30.890Z,99153.84
2023-02-25T11:06:10.981Z,99144.59
2023-02-25T11:08:39.187Z,99126.50
2023-02-25T11:11:13.386Z,99123.22
2023-02-25T11:13:41.715Z,99134.56
2023-02-25T11:16:10.861Z,99106.50
2023-02-25T11:18:39.337Z,99124.75
2023-02-25T11:21:09.597Z,99135.47
2023-02-25T11:23:46.332Z,99114.31
2023-02-25T11:26:16.499Z,99145.06
2023-02-25T11:28:46.039Z,99204.75
2023-02-25T11:31:17.390Z,99136.09
2023-02-25T11:33:46.887Z,99152.78
2023-02-25T11:36:23.550Z,99085.38
2023-02-25T11:38:51.847Z,99149.19
2023-02-25T11:41:23.147Z,99093.16
2023-02-25T11:43:51.174Z,99153.75
2023-02-25T11:46:24.165Z,99152.19
2023-02-25T11:48:53.402Z,99134.97
2023-02-25T11:51:26.298Z,99145.50
2023-02-25T11:54:07.600Z,99149.75
2023-02-25T11:56:36.634Z,99148.22
2023-02-25T11:59:15.968Z,99116.75
2023-02-25T12:01:53.410Z,99102.78
2023-02-25T12:04:36.952Z,99146.06
2023-02-25T12:07:17.201Z,99134.75
2023-02-25T12:10:17.603Z,99137.81
2023-02-25T12:13:16.504Z,99098.78
2023-02-25T12:16:17.484Z,99128.59
2023-02-25T12:19:05.407Z,99128.63
2023-02-25T12:22:05.619Z,99163.78
2023-02-25T12:24:53.830Z,99166.31
2023-02-25T12:27:58.807Z,99134.19
2023-02-25T12:30:49.866Z,99155.38
2023-02-25T12:33:26.246Z,99149.44
2023-02-25T12:36:04.760Z,99153.59
2023-02-25T12:41:18.643Z,99147.47
2023-02-25T12:43:49.728Z,99155.97
2023-02-25T12:46:45.738Z,99162.81
2023-02-25T12:49:27.791Z,99133.03
2023-02-25T12:52:25.097Z,99158.03
2023-02-25T12:55:25.208Z,99154.91
2023-02-25T12:58:09.163Z,99171.56
2023-02-25T13:00:45.834Z,99161.28
2023-02-25T13:03:24.366Z,99150.84
2023-02-25T13:06:01.420Z,99160.84
2023-02-25T13:08:38.892Z,99156.66
2023-02-25T13:11:11.051Z,99156.66
2023-02-25T13:14:02.950Z,99176.81
2023-02-25T13:16:44.184Z,99186.81
2023-02-25T13:19:25.207Z,99193.66
2023-02-25T13:21:56.619Z,99179.84
2023-02-25T13:24:46.805Z,99180.47
2023-02-25T13:27:26.958Z,99166.09
2023-02-25T13:30:04.965Z,99180.09
2023-02-25T13:32:35.983Z,99187.97
2023-02-25T13:35:20.894Z,99178.28
2023-02-25T13:37:52.470Z,99192.03
2023-02-25T13:40:27.275Z,99187.59
2023-02-25T13:43:13.474Z,99176.97
2023-02-25T13:45:53.271Z,99177.34
2023-02-25T13:48:43.065Z,99203.50
2023-02-25T13:51:30.230Z,99099.28
2023-02-25T13:54:07.567Z,99209.00
2023-02-25T13:56:58.517Z,99208.94
2023-02-25T13:59:39.963Z,99203.78
2023-02-25T14:02:39.525Z,99207.16
2023-02-25T14:05:17.688Z,99218.66
2023-02-25T14:08:01.860Z,99204.97
2023-02-25T14:10:39.005Z,99200.72
2023-02-25T14:13:17.170Z,99163.00
2023-02-25T14:15:51.571Z,99214.13
2023-02-25T14:18:37.965Z,99215.78
2023-02-25T14:21:30.135Z,99206.16
2023-02-25T14:24:00.716Z,99214.06
2023-02-25T14:26:34.385Z,99215.97
2023-02-25T14:29:09.227Z,99222.22
2023-02-25T14:31:43.052Z,99222.31
2023-02-25T14:34:28.617Z,99234.66
2023-02-25T14:37:03.059Z,99236.44
2023-02-25T14:39:37.106Z,99233.03
2023-02-25T14:42:16.989Z,99239.31
2023-02-25T14:44:46.633Z,99262.00
2023-02-25T14:47:15.860Z,99256.88
2023-02-25T14:49:55.993Z,99250.91
2023-02-25T14:52:48.528Z,99265.72
2023-02-25T14:55:42.017Z,99213.84
2023-02-25T14:58:19.289Z,99221.75
2023-02-25T15:01:11.994Z,99264.09
2023-02-25T15:04:01.518Z,99259.84
2023-02-25T15:06:53.519Z,99260.75
2023-02-25T15:09:30.836Z,99249.47
2023-02-25T15:12:08.067Z,99273.81
2023-02-25T15:14:49.684Z,99268.69
2023-02-25T15:17:34.760Z,99276.50
2023-02-25T15:20:27.136Z,99274.81
2023-02-25T15:23:04.979Z,99280.03
2023-02-25T15:25:57.870Z,99280.03
2023-02-25T15:28:41.761Z,99279.19
2023-02-25T15:31:28.461Z,99165.84
2023-02-25T15:34:11.846Z,99296.56
2023-02-25T15:36:43.374Z,99309.69
2023-02-25T15:39:12.530Z,99303.59
2023-02-25T15:41:46.971Z,99317.50
2023-02-25T15:44:40.603Z,99290.63
2023-02-25T15:47:25.202Z,99312.31
2023-02-25T15:49:53.440Z,99314.97
2023-02-25T15:52:58.574Z,99313.25
2023-02-25T15:55:41.594Z,99275.16
2023-02-25T15:58:51.811Z,99325.38
2023-02-25T16:01:42.326Z,99324.56
2023-02-25T16:04:48.713Z,99335.88
2023-02-25T16:07:17.553Z,99345.44
2023-02-25T16:09:47.554Z,99361.09
2023-02-25T16:12:16.693Z,99346.31
2023-02-25T16:14:44.363Z,99356.75
2023-02-25T16:17:16.736Z,99359.38
2023-02-25T16:19:44.497Z,99286.56
2023-02-25T16:22:14.633Z,99335.13
2023-02-25T16:24:43.741Z,99368.06
2023-02-25T16:27:14.994Z,99368.94
2023-02-25T16:29:53.142Z,99372.41
2023-02-25T16:32:26.975Z,99373.28
2023-02-25T16:34:57.200Z,99371.56
2023-02-25T16:37:28.278Z,99380.22
2023-02-25T16:39:56.140Z,99392.38
2023-02-25T16:42:23.917Z,99395.84
2023-02-25T16:44:59.715Z,99375.88
2023-02-25T16:47:28.397Z,99405.38
2023-02-25T16:49:56.612Z,99410.56
2023-02-25T16:52:27.894Z,99373.25
2023-02-25T16:54:57.601Z,99421.81
2023-02-25T16:57:25.826Z,99399.25
2023-02-25T17:00:14.275Z,99417.47
2023-02-25T17:02:47.587Z,99365.31
2023-02-25T17:05:26.526Z,99434.78
2023-02-25T17:07:59.515Z,99440.78
2023-02-25T17:10:28.907Z,99422.56
2023-02-25T17:12:56.590Z,99445.13
2023-02-25T17:15:27.193Z,99419.88
2023-02-25T17:17:58.420Z,99450.28
2023-02-25T17:20:27.949Z,99451.09
2023-02-25T17:22:56.221Z,99453.69
2023-02-25T17:25:24.074Z,99459.75
2023-02-25T17:27:51.782Z,99459.75
2023-02-25T17:30:39.049Z,99444.00
2023-02-25T17:33:06.976Z,99439.66
2023-02-25T17:35:35.043Z,99480.44
2023-02-25T17:38:02.795Z,99478.66
2023-02-25T17:40:30.577Z,99479.53
2023-02-25T17:43:18.960Z,99486.47
2023-02-25T17:45:51.048Z,99458.59
2023-02-25T17:48:19.548Z,99456.81
2023-02-25T17:50:53.298Z,99496.78
2023-02-25T17:53:29.856Z,99501.94
2023-02-25T17:55:57.663Z,99505.41
2023-02-25T17:58:25.320Z,99501.91
2023-02-25T18:01:01.725Z,99500.19
2023-02-25T18:03:30.678Z,99508.81
2023-02-25T18:06:00.211Z,99486.97
2023-02-25T18:08:29.138Z,99517.41
2023-02-25T18:10:58.966Z,99519.97
2023-02-25T18:13:31.208Z,99487.63
2023-02-25T18:16:39.035Z,99519.94
2023-02-25T18:19:26.970Z,99531.97
2023-02-25T18:21:54.670Z,99540.63
2023-02-25T18:24:30.900Z,99544.94
2023-02-25T18:27:21.970Z,99543.19
2023-02-25T18:29:49.721Z,99490.91
2023-02-25T18:32:18.936Z,99553.53
2023-02-25T18:34:46.657Z,99544.84
2023-02-25T18:37:17.396Z,99545.63
2023-02-25T18:42:16.557Z,99561.19
2023-02-25T18:44:44.523Z,99552.44
2023-02-25T18:47:12.904Z,99566.31
2023-02-25T18:49:42.113Z,99568.91
2023-02-25T18:52:14.435Z,99571.47
2023-02-25T18:54:42.958Z,99547.06
2023-02-25T18:57:16.963Z,99577.47
2023-02-25T18:59:46.016Z,99578.31
2023-02-25T19:02:25.367Z,99535.63
2023-02-25T19:04:57.419Z,99586.91
2023-02-25T19:07:26.461Z,99580.75
2023-02-25T19:09:56.439Z,99585.06
2023-02-25T19:12:24.701Z,99587.69
2023-02-25T19:14:55.003Z,99581.59
2023-02-25T19:17:22.745Z,99585.06
2023-02-25T19:19:50.482Z,99593.66
2023-02-25T19:22:20.163Z,99582.31
2023-02-25T19:24:48.434Z,99591.81
2023-02-25T19:27:21.798Z,99591.94
2023-02-25T19:29:50.210Z,99597.13
2023-02-25T19:32:21.466Z,99605.81
2023-02-25T19:34:49.601Z,99605.88
2023-02-25T19:37:21.171Z,99613.59
2023-02-25T19:39:48.886Z,99606.63
2023-02-25T19:42:16.657Z,99615.16
2023-02-25T19:44:44.312Z,99616.03
2023-02-25T19:47:11.992Z,99619.44
2023-02-25T19:49:39.753Z,99623.72
2023-02-25T19:52:07.480Z,99622.75
2023-02-25T19:54:38.929Z,99620.00
2023-02-25T19:57:06.818Z,99631.28
2023-02-25T19:59:34.820Z,99637.34
2023-02-25T20:02:02.524Z,99621.47
2023-02-25T20:04:30.301Z,99651.94
2023-02-25T20:06:58.834Z,99641.50
2023-02-25T20:09:26.517Z,99644.06
2023-02-25T20:11:55.585Z,99631.78
2023-02-25T20:14:23.982Z,99646.63
2023-02-25T20:16:51.735Z,99656.06
2023-02-25T20:19:19.424Z,99643.78
2023-02-25T20:21:47.095Z,99651.66
2023-02-25T20:24:14.750Z,99662.78
2023-02-25T20:26:42.428Z,99656.75
2023-02-25T20:29:11.511Z,99666.19
2023-02-25T20:31:39.873Z,99664.44
2023-02-25T20:34:10.725Z,99557.94
2023-02-25T20:36:39.891Z,99664.31
2023-02-25T20:39:17.449Z,99665.97
2023-02-25T20:41:45.692Z,99667.69
2023-02-25T20:44:14.924Z,99676.28
2023-02-25T20:46:44.026Z,99677.09
2023-02-25T20:49:13.529Z,99672.66
2023-02-25T20:51:42.400Z,99674.38
2023-02-25T20:54:10.392Z,99677.75
2023-02-25T20:56:38.077Z,99650.66
2023-02-25T20:59:06.022Z,99687.16
2023-02-25T21:01:35.135Z,99647.06
2023-02-25T21:04:03.306Z,99655.75
2023-02-25T21:06:31.095Z,99691.38
2023-02-25T21:08:59.973Z,99676.63
2023-02-25T21:11:27.969Z,99686.97
2023-02-25T21:14:09.237Z,99696.44
2023-02-25T21:16:38.556Z,99690.38
2023-02-25T21:19:06.336Z,99695.50
2023-02-25T21:21:37.949Z,99647.38
2023-02-25T21:24:05.896Z,99701.50
2023-02-25T21:26:33.703Z,99698.06
2023-02-25T21:29:01.739Z,99701.50
2023-02-25T21:31:29.458Z,99704.06
2023-02-25T21:33:59.513Z,99695.16
2023-02-25T21:36:27.362Z,99711.75
2023-02-25T21:38:55.086Z,99704.84
2023-02-25T21:41:22.760Z,99697.84
2023-02-25T21:43:53.894Z,99709.94
2023-02-25T21:46:21.608Z,99695.19
2023-02-25T21:48:50.594Z,99675.00
2023-02-25T21:51:20.835Z,99707.28
2023-02-25T21:53:48.527Z,99709.03
2023-02-25T21:56:17.576Z,99691.31
2023-02-25T21:58:45.711Z,99717.59
2023-02-25T22:01:17.410Z,99676.41
2023-02-25T22:03:45.748Z,99694.75
2023-02-25T22:06:13.944Z,99717.25
2023-02-25T22:08:44.170Z,99738.97
2023-02-25T22:11:12.934Z,99727.75
2023-02-25T22:13:40.707Z,99729.47
2023-02-25T22:16:08.618Z,99722.41
2023-02-25T22:18:36.442Z,99731.13
2023-02-25T22:21:05.920Z,99695.81
2023-02-25T22:23:33.642Z,99703.91
2023-02-25T22:26:04.132Z,99739.63
2023-02-25T22:28:32.060Z,99739.63
2023-02-25T22:30:59.835Z,99730.91
2023-02-25T22:33:30.726Z,99736.09
2023-02-25T22:35:59.653Z,99736.94
2023-02-25T22:38:28.431Z,99727.13
2023-02-25T22:40:56.135Z,99746.25
2023-02-25T22:43:25.729Z,99754.09
2023-02-25T22:45:53.419Z,99756.44
2023-02-25T22:48:21.238Z,99760.00
2023-02-25T22:50:50.101Z,99650.84
2023-02-25T22:53:18.600Z,99766.78
2023-02-25T22:55:46.291Z,99759.06
2023-02-25T22:58:14.091Z,99767.66
2023-02-25T23:00:43.617Z,99769.31
2023-02-25T23:03:12.914Z,99748.34
2023-02-25T23:05:40.605Z,99685.50
2023-02-25T23:08:08.360Z,99764.03
2023-02-25T23:10:36.121Z,99765.72
2023-02-25T23:13:07.823Z,99703.69
2023-02-25T23:15:35.929Z,99757.88
2023-02-25T23:18:05.834Z,99755.22
2023-02-25T23:20:34.209Z,99762.94
2023-02-25T23:23:04.667Z,99756.53
2023-02-25T23:25:32.488Z,99761.88
2023-02-25T23:28:00.430Z,99825.50
2023-02-25T23:30:28.408Z,99778.38
2023-02-25T23:32:57.507Z,99791.38
2023-02-25T23:35:26.732Z,99765.50
2023-02-25T23:37:55.503Z,99775.91
2023-02-25T23:40:23.775Z,99773.22
2023-02-25T23:42:51.518Z,99782.88
2023-02-25T23:45:19.625Z,99784.72
2023-02-25T23:47:47.440Z,99741.00
2023-02-25T23:50:16.129Z,99778.66
2023-02-25T23:52:45.235Z,99811.69
2023-02-25T23:55:12.897Z,99787.63
2023-02-25T23:57:40.738Z,99787.56
